Betty K Vi — HP5720 — position and weather

sailwx.info

Track history (hours):
 
Tides and Currents Weather Stations Pressure Air Temp Water Temp Dewpoint Dewpoint Depression Visibility Wind Speed Wind Dir Waves Ship Positions

Betty K Vi

Last reported at 2017-Oct-20 01:28 UTC. Time now 2017-Oct-20 01:45 UTC.
Position N 25°48' W 080°15'.

Length 60 m; draft 3.2 m.

Type: Cargo ship. MMSI: 354543000.

Date/timePositionNaut miles runAvg speedWind from/ knotsBaromVisibWave heightAir tempDewpointWater temp
2017-Oct-20 01:28N 25°48' W 080°15'0 0.0
2017-Oct-20 00:58N 25°48' W 080°15'0 0.0
2017-Oct-20 00:28N 25°48' W 080°15'0 0.0
2017-Oct-19 23:58N 25°48' W 080°15'0 0.0
2017-Oct-19 23:28N 25°48' W 080°15'0 0.0
2017-Oct-19 22:58N 25°48' W 080°15'0 0.0
2017-Oct-19 22:28N 25°48' W 080°15'0 0.0
2017-Oct-19 21:59N 25°48' W 080°15'1 1.4
2017-Oct-19 21:31N 25°48' W 080°15'2 3.5
2017-Oct-19 21:00N 25°47' W 080°13'2 3.4
2017-Oct-19 20:31N 25°46' W 080°11'3 5.1
2017-Oct-19 20:00N 25°46' W 080°08'3 6.2
2017-Oct-19 19:30N 25°46' W 080°05'1 2.1
2017-Oct-19 19:00N 25°47' W 080°05'0 0.0
2017-Oct-19 18:28N 25°47' W 080°05'0 0.0
2017-Oct-19 17:58N 25°47' W 080°05'0 0.0
2017-Oct-19 17:30N 25°47' W 080°05'0 0.0
2017-Oct-19 16:58N 25°47' W 080°05'0 0.0
2017-Oct-19 16:30N 25°47' W 080°05'0 0.0
2017-Oct-19 16:00N 25°47' W 080°05'0 0.0
2017-Oct-19 15:29N 25°47' W 080°05'0 0.0
2017-Oct-19 14:59N 25°47' W 080°05'0 0.0
2017-Oct-19 14:29N 25°47' W 080°05'2 3.3
2017-Oct-19 14:00N 25°46' W 080°04'5 9.2
2017-Oct-19 13:30N 25°47' W 079°59'5 9.2
2017-Oct-19 13:00N 25°48' W 079°54'4 8.9
2017-Oct-19 12:31N 25°48' W 079°49'5 8.9
2017-Oct-19 12:00N 25°49' W 079°44'4 9.1
2017-Oct-19 11:31N 25°50' W 079°39'3 0.1
2017-Oct-17 23:17N 25°50' W 079°36'3 9.8
2017-Oct-17 23:00N 25°49' W 079°39'5 9.8
2017-Oct-17 22:30N 25°49' W 079°45'5 9.8
2017-Oct-17 22:00N 25°48' W 079°50'5 9.8
2017-Oct-17 21:30N 25°48' W 079°56'5 9.9
2017-Oct-17 21:00N 25°47' W 080°01'4 9.0
2017-Oct-17 20:30N 25°46' W 080°06'4 7.6
2017-Oct-17 20:01N 25°46' W 080°10'2 3.4
2017-Oct-17 19:30N 25°46' W 080°12'2 3.5
2017-Oct-17 19:01N 25°47' W 080°14'1 2.9
2017-Oct-17 18:30N 25°48' W 080°15'0 0.7
2017-Oct-17 17:59N 25°48' W 080°15'0 0.0
2017-Oct-17 17:29N 25°48' W 080°15'0 0.0
2017-Oct-17 16:59N 25°48' W 080°15'0 0.0
2017-Oct-17 16:29N 25°48' W 080°15'0 0.0
2017-Oct-17 15:59N 25°48' W 080°15'0 0.0
2017-Oct-17 15:29N 25°48' W 080°15'0 0.0
2017-Oct-17 14:59N 25°48' W 080°15'0 0.0
2017-Oct-17 14:26N 25°48' W 080°15'0 0.0
2017-Oct-17 13:59N 25°48' W 080°15'0 0.0
2017-Oct-17 13:29N 25°48' W 080°15'0 0.0
2017-Oct-17 12:59N 25°48' W 080°15'0 0.0
2017-Oct-17 12:29N 25°48' W 080°15'0 0.0
2017-Oct-17 11:59N 25°48' W 080°15'0 0.0
2017-Oct-17 11:29N 25°48' W 080°15'0 0.0
2017-Oct-17 10:59N 25°48' W 080°15'0 0.0
2017-Oct-17 10:29N 25°48' W 080°15'0 0.0
2017-Oct-17 09:59N 25°48' W 080°15'0 0.0
2017-Oct-17 09:28N 25°48' W 080°15'0 0.0
2017-Oct-17 08:58N 25°48' W 080°15'0 0.0
2017-Oct-17 08:25N 25°48' W 080°15'0 0.0
2017-Oct-17 07:58N 25°48' W 080°15'0 0.0
2017-Oct-17 07:25N 25°48' W 080°15'0 0.0
2017-Oct-17 06:58N 25°48' W 080°15'0 0.0
2017-Oct-17 06:28N 25°48' W 080°15'0 0.0
2017-Oct-17 05:58N 25°48' W 080°15'0 0.0
2017-Oct-17 05:28N 25°48' W 080°15'0 0.0
2017-Oct-17 04:58N 25°48' W 080°15'0 0.0
2017-Oct-17 04:22N 25°48' W 080°15'0 0.0
2017-Oct-17 03:58N 25°48' W 080°15'0 0.0
2017-Oct-17 03:25N 25°48' W 080°15'0 0.0
2017-Oct-17 02:58N 25°48' W 080°15'0 0.0
2017-Oct-17 02:28N 25°48' W 080°15'0 0.0
2017-Oct-17 01:55N 25°48' W 080°15'0 0.0
2017-Oct-17 01:28N 25°48' W 080°15'0 0.0
2017-Oct-17 00:58N 25°48' W 080°15'0 0.0
2017-Oct-17 00:28N 25°48' W 080°15'0 0.0
2017-Oct-16 23:58N 25°48' W 080°15'0 0.0
2017-Oct-16 23:28N 25°48' W 080°15'0 0.0
2017-Oct-16 22:58N 25°48' W 080°15'0 0.0
2017-Oct-16 22:28N 25°48' W 080°15'0 0.0
2017-Oct-16 21:58N 25°48' W 080°15'0 0.0
2017-Oct-16 21:28N 25°48' W 080°15'0 0.0
2017-Oct-16 20:58N 25°48' W 080°15'0 0.0
2017-Oct-16 20:28N 25°48' W 080°15'0 0.0
2017-Oct-16 19:58N 25°48' W 080°15'0 0.0
2017-Oct-16 19:28N 25°48' W 080°15'0 0.0
2017-Oct-16 18:58N 25°48' W 080°15'0 0.0
2017-Oct-16 18:28N 25°48' W 080°15'0 0.0
2017-Oct-16 17:58N 25°48' W 080°15'0 0.0
2017-Oct-16 17:29N 25°48' W 080°15'0 0.0
2017-Oct-16 16:58N 25°48' W 080°15'0 0.0
2017-Oct-16 16:28N 25°48' W 080°15'0 0.0
2017-Oct-16 15:58N 25°48' W 080°15'0 0.0
2017-Oct-16 15:25N 25°48' W 080°15'0 0.0
2017-Oct-16 14:58N 25°48' W 080°15'0 0.0
2017-Oct-16 14:00N 25°48' W 080°15'0 0.0
2017-Oct-16 13:30N 25°48' W 080°15'0 0.0
2017-Oct-16 12:56N 25°48' W 080°15'0 0.0
2017-Oct-16 12:29N 25°48' W 080°15'0 0.0
2017-Oct-16 11:59N 25°48' W 080°15'0 0.0
2017-Oct-16 11:29N 25°48' W 080°15'0 0.0
2017-Oct-16 10:59N 25°48' W 080°15'0 0.0
2017-Oct-16 10:29N 25°48' W 080°15'0 0.0
2017-Oct-16 09:59N 25°48' W 080°15'0 0.0
2017-Oct-16 09:29N 25°48' W 080°15'0 0.0
2017-Oct-16 08:59N 25°48' W 080°15'0 0.0
2017-Oct-16 08:30N 25°48' W 080°15'0 0.0
2017-Oct-16 08:00N 25°48' W 080°15'0 0.0
2017-Oct-16 07:27N 25°48' W 080°15'0 0.0
2017-Oct-16 07:00N 25°48' W 080°15'0 0.0
2017-Oct-16 06:30N 25°48' W 080°15'0 0.0
2017-Oct-16 05:57N 25°48' W 080°15'0 0.0
2017-Oct-16 05:30N 25°48' W 080°15'0 0.0
2017-Oct-16 05:00N 25°48' W 080°15'0 0.0
2017-Oct-16 04:30N 25°48' W 080°15'0 0.0
2017-Oct-16 04:00N 25°48' W 080°15'0 0.0
2017-Oct-16 03:30N 25°48' W 080°15'0 0.0
2017-Oct-16 03:00N 25°48' W 080°15'0 0.0
2017-Oct-16 02:30N 25°48' W 080°15'0 0.0
2017-Oct-16 02:00N 25°48' W 080°15'0 0.0
2017-Oct-16 01:27N 25°48' W 080°15'0 0.0
2017-Oct-16 01:00N 25°48' W 080°15'0 0.0
2017-Oct-16 00:30N 25°48' W 080°15'0 0.0
2017-Oct-16 00:00N 25°48' W 080°15'0 0.0
2017-Oct-15 23:21N 25°48' W 080°15'0 0.0
2017-Oct-15 23:00N 25°48' W 080°15'0 0.0
2017-Oct-15 22:30N 25°48' W 080°15'0 0.0
2017-Oct-15 22:00N 25°48' W 080°15'0 0.0
2017-Oct-15 21:30N 25°48' W 080°15'0 0.0
2017-Oct-15 21:00N 25°48' W 080°15'0 0.0
2017-Oct-15 20:30N 25°48' W 080°15'0 0.0
2017-Oct-15 20:00N 25°48' W 080°15'0 0.0
2017-Oct-15 19:30N 25°48' W 080°15'0 0.0
2017-Oct-15 19:00N 25°48' W 080°15'0 0.0
2017-Oct-15 18:30N 25°48' W 080°15'0 0.0
2017-Oct-15 17:59N 25°48' W 080°15'0 0.0
2017-Oct-15 17:30N 25°48' W 080°15'0 0.0
2017-Oct-15 16:59N 25°48' W 080°15'0 0.0
2017-Oct-15 16:29N 25°48' W 080°15'0 0.0
2017-Oct-15 15:47N 25°48' W 080°15'0 0.0
2017-Oct-15 15:29N 25°48' W 080°15'0 0.0
2017-Oct-15 14:59N 25°48' W 080°15'0 0.0
2017-Oct-15 13:59N 25°48' W 080°15'0 0.0
2017-Oct-15 13:23N 25°48' W 080°15'0 0.0
2017-Oct-15 12:59N 25°48' W 080°15'0 0.0
2017-Oct-15 12:23N 25°48' W 080°15'0 0.0
2017-Oct-15 11:59N 25°48' W 080°15'0 0.0
2017-Oct-15 11:29N 25°48' W 080°15'0 0.0
2017-Oct-15 10:56N 25°48' W 080°15'0 0.0
2017-Oct-15 10:29N 25°48' W 080°15'0 0.0
2017-Oct-15 09:56N 25°48' W 080°15'0 0.0
2017-Oct-15 09:26N 25°48' W 080°15'0 0.0
2017-Oct-15 08:56N 25°48' W 080°15'0 0.0
2017-Oct-15 08:26N 25°48' W 080°15'0 0.0
2017-Oct-15 07:56N 25°48' W 080°15'0 0.0
2017-Oct-15 07:26N 25°48' W 080°15'0 0.0
2017-Oct-15 06:56N 25°48' W 080°15'0 0.0
2017-Oct-15 06:29N 25°48' W 080°15'0 0.0
2017-Oct-15 05:56N 25°48' W 080°15'0 0.0
2017-Oct-15 05:29N 25°48' W 080°15'0 0.0
2017-Oct-15 04:59N 25°48' W 080°15'0 0.0
2017-Oct-15 04:29N 25°48' W 080°15'0 0.0
2017-Oct-15 03:59N 25°48' W 080°15'0 0.0
2017-Oct-15 03:26N 25°48' W 080°15'0 0.0
2017-Oct-15 02:59N 25°48' W 080°15'0 0.0
2017-Oct-15 02:29N 25°48' W 080°15'0 0.0
2017-Oct-15 01:59N 25°48' W 080°15'0 0.0
2017-Oct-15 01:29N 25°48' W 080°15'0 0.0
2017-Oct-15 00:59N 25°48' W 080°15'0 0.0
2017-Oct-15 00:29N 25°48' W 080°15'0 0.0
2017-Oct-14 23:59N 25°48' W 080°15'0 0.0
2017-Oct-14 23:29N 25°48' W 080°15'0 0.0
2017-Oct-14 22:59N 25°48' W 080°15'0 0.0
2017-Oct-14 22:29N 25°48' W 080°15'0 0.0
2017-Oct-14 21:59N 25°48' W 080°15'0 0.0
2017-Oct-14 21:23N 25°48' W 080°15'0 0.3
2017-Oct-14 21:01N 25°48' W 080°15'1 2.7
2017-Oct-14 20:31N 25°47' W 080°14'2 3.3
2017-Oct-14 20:01N 25°47' W 080°12'2 3.2
2017-Oct-14 19:31N 25°46' W 080°11'3 7.0
2017-Oct-14 19:01N 25°45' W 080°07'2 4.9
2017-Oct-14 18:30N 25°46' W 080°04'2 5.0
2017-Oct-14 18:00N 25°47' W 080°02'2 4.7
2017-Oct-14 17:30N 25°47' W 079°59'2 4.3
2017-Oct-14 17:00N 25°47' W 079°57'3 6.2
2017-Oct-14 16:30N 25°48' W 079°53'3 6.4
2017-Oct-14 16:00N 25°48' W 079°50'3 6.4
2017-Oct-14 15:30N 25°49' W 079°46'3 6.3
2017-Oct-14 15:00N 25°49' W 079°43'7 0.2
2017-Oct-13 00:11N 25°54' W 079°37'3 8.1
2017-Oct-12 23:50N 25°56' W 079°39'3 7.9
2017-Oct-12 23:30N 25°57' W 079°41'3 6.6
2017-Oct-12 23:00N 25°59' W 079°44'5 9.6
2017-Oct-12 22:30N 25°56' W 079°48'5 9.9
2017-Oct-12 22:00N 25°53' W 079°52'5 9.7
2017-Oct-12 21:30N 25°50' W 079°57'510.0
2017-Oct-12 21:00N 25°47' W 080°01'4 8.8
2017-Oct-12 20:31N 25°46' W 080°06'4 7.7
2017-Oct-12 20:00N 25°46' W 080°10'2 3.3
2017-Oct-12 19:30N 25°46' W 080°12'1 2.8
2017-Oct-12 19:00N 25°47' W 080°13'1 3.0
2017-Oct-12 18:30N 25°48' W 080°15'1 1.6
2017-Oct-12 18:00N 25°48' W 080°15'0 0.0
2017-Oct-12 17:30N 25°48' W 080°15'0 0.0
2017-Oct-12 17:00N 25°48' W 080°15'0 0.0
2017-Oct-12 16:26N 25°48' W 080°15'0 0.0
2017-Oct-12 15:56N 25°48' W 080°15'0 0.0
2017-Oct-12 15:29N 25°48' W 080°15'0 0.0
2017-Oct-12 14:59N 25°48' W 080°15'0 0.0
2017-Oct-12 14:29N 25°48' W 080°15'0 0.0
2017-Oct-12 13:59N 25°48' W 080°15'0 0.0
2017-Oct-12 13:29N 25°48' W 080°15'0 0.0
2017-Oct-12 12:59N 25°48' W 080°15'0 0.0
2017-Oct-12 12:29N 25°48' W 080°15'0 0.0
2017-Oct-12 11:59N 25°48' W 080°15'0 0.0
2017-Oct-12 11:30N 25°48' W 080°15'0 0.0
2017-Oct-12 10:57N 25°48' W 080°15'0 0.0
2017-Oct-12 10:30N 25°48' W 080°15'0 0.0
2017-Oct-12 09:57N 25°48' W 080°15'0 0.0
2017-Oct-12 09:30N 25°48' W 080°15'0 0.0
2017-Oct-12 09:00N 25°48' W 080°15'0 0.0
2017-Oct-12 08:30N 25°48' W 080°15'0 0.0
2017-Oct-12 08:00N 25°48' W 080°15'0 0.0
2017-Oct-12 07:30N 25°48' W 080°15'0 0.0
2017-Oct-12 07:00N 25°48' W 080°15'0 0.0
2017-Oct-12 06:30N 25°48' W 080°15'0 0.0
2017-Oct-12 06:00N 25°48' W 080°15'0 0.0
2017-Oct-12 05:30N 25°48' W 080°15'0 0.0
2017-Oct-12 05:00N 25°48' W 080°15'0 0.0
2017-Oct-12 04:30N 25°48' W 080°15'0 0.0
2017-Oct-12 04:00N 25°48' W 080°15'0 0.0
2017-Oct-12 03:30N 25°48' W 080°15'0 0.0
2017-Oct-12 03:00N 25°48' W 080°15'0 0.0
2017-Oct-12 02:30N 25°48' W 080°15'0 0.0
2017-Oct-12 02:00N 25°48' W 080°15'0 0.0
2017-Oct-12 01:30N 25°48' W 080°15'0 0.0
2017-Oct-12 01:00N 25°48' W 080°15'0 0.0
2017-Oct-12 00:27N 25°48' W 080°15'0 0.0
2017-Oct-12 00:00N 25°48' W 080°15'0 0.0
2017-Oct-11 23:27N 25°48' W 080°15'0 0.0
2017-Oct-11 23:00N 25°48' W 080°15'0 0.0
2017-Oct-11 22:30N 25°48' W 080°15'0 0.0
2017-Oct-11 22:00N 25°48' W 080°15'0 0.0
2017-Oct-11 21:27N 25°48' W 080°15'0 0.0
2017-Oct-11 21:00N 25°48' W 080°15'0 0.0
2017-Oct-11 20:30N 25°48' W 080°15'0 0.0
2017-Oct-11 20:00N 25°48' W 080°15'0 0.0
2017-Oct-11 19:30N 25°48' W 080°15'0 0.0
2017-Oct-11 19:00N 25°48' W 080°15'0 0.0
2017-Oct-11 18:30N 25°48' W 080°15'0 0.0
2017-Oct-11 18:00N 25°48' W 080°15'0 0.0
2017-Oct-11 17:30N 25°48' W 080°15'0 0.0
2017-Oct-11 17:00N 25°48' W 080°15'0 0.0
2017-Oct-11 00:00N 25°48' W 080°15'0 0.0
2017-Oct-10 23:30N 25°48' W 080°15'0 0.0
2017-Oct-10 23:00N 25°48' W 080°15'0 0.0
2017-Oct-10 22:30N 25°48' W 080°15'0 0.0
2017-Oct-10 22:00N 25°48' W 080°15'0 0.0
2017-Oct-10 21:30N 25°48' W 080°15'0 0.0
2017-Oct-10 21:00N 25°48' W 080°15'0 0.0
2017-Oct-10 20:30N 25°48' W 080°15'0 0.0
2017-Oct-10 20:00N 25°48' W 080°15'0 0.0
2017-Oct-10 19:30N 25°48' W 080°15'0 0.0
2017-Oct-10 19:00N 25°48' W 080°15'0 0.0
2017-Oct-10 18:30N 25°48' W 080°15'0 0.0
2017-Oct-10 18:00N 25°48' W 080°15'0 0.0
2017-Oct-10 17:30N 25°48' W 080°15'0 0.0
2017-Oct-10 17:01N 25°48' W 080°15'0 0.0
2017-Oct-10 16:30N 25°48' W 080°15'0 0.0
2017-Oct-10 16:00N 25°48' W 080°15'0 0.0
2017-Oct-10 15:30N 25°48' W 080°15'0 0.0
2017-Oct-10 15:00N 25°48' W 080°15'0 0.0
2017-Oct-10 14:00N 25°48' W 080°15'0 0.0
2017-Oct-10 13:30N 25°48' W 080°15'0 0.0
2017-Oct-10 13:00N 25°48' W 080°15'0 0.0
2017-Oct-10 12:30N 25°48' W 080°15'0 0.0
2017-Oct-10 12:00N 25°48' W 080°15'0 0.0
2017-Oct-10 11:30N 25°48' W 080°15'0 0.0
2017-Oct-10 11:00N 25°48' W 080°15'0 0.0
2017-Oct-10 10:30N 25°48' W 080°15'0 0.0
2017-Oct-10 10:00N 25°48' W 080°15'0 0.0
2017-Oct-10 09:30N 25°48' W 080°15'0 0.0
2017-Oct-10 09:00N 25°48' W 080°15'0 0.0
2017-Oct-10 08:30N 25°48' W 080°15'0 0.0
2017-Oct-10 08:00N 25°48' W 080°15'0 0.0
2017-Oct-10 07:30N 25°48' W 080°15'0 0.0
2017-Oct-10 07:00N 25°48' W 080°15'0 0.0
2017-Oct-10 06:30N 25°48' W 080°15'0 0.0
2017-Oct-10 06:00N 25°48' W 080°15'0 0.0
2017-Oct-10 05:30N 25°48' W 080°15'0 0.0
2017-Oct-10 05:00N 25°48' W 080°15'0 0.0
2017-Oct-10 04:29N 25°48' W 080°15'0 0.0
2017-Oct-10 04:00N 25°48' W 080°15'0 0.0
2017-Oct-10 03:30N 25°48' W 080°15'0 0.0
2017-Oct-10 03:00N 25°48' W 080°15'0 0.0
2017-Oct-10 02:30N 25°48' W 080°15'0 0.0
2017-Oct-10 02:00N 25°48' W 080°15'0 0.0
2017-Oct-10 01:30N 25°48' W 080°15'  
Track history (hours):
 
Tides and Currents Weather Stations Pressure Air Temp Water Temp Dewpoint Dewpoint Depression Visibility Wind Speed Wind Dir Waves Ship Positions

Betty K Vi

Last reported at 2017-Oct-20 01:28 UTC. Time now 2017-Oct-20 01:45 UTC.
Position N 25°48' W 080°15'.

Length 60 m; draft 3.2 m.

Type: Cargo ship. MMSI: 354543000.

Date/timePositionNaut miles runAvg speedWind from/ knotsBaromVisibWave heightAir tempDewpointWater temp
2017-Oct-20 01:28N 25°48' W 080°15'0 0.0
2017-Oct-20 00:58N 25°48' W 080°15'0 0.0
2017-Oct-20 00:28N 25°48' W 080°15'0 0.0
2017-Oct-19 23:58N 25°48' W 080°15'0 0.0
2017-Oct-19 23:28N 25°48' W 080°15'0 0.0
2017-Oct-19 22:58N 25°48' W 080°15'0 0.0
2017-Oct-19 22:28N 25°48' W 080°15'0 0.0
2017-Oct-19 21:59N 25°48' W 080°15'1 1.4
2017-Oct-19 21:31N 25°48' W 080°15'2 3.5
2017-Oct-19 21:00N 25°47' W 080°13'2 3.4
2017-Oct-19 20:31N 25°46' W 080°11'3 5.1
2017-Oct-19 20:00N 25°46' W 080°08'3 6.2
2017-Oct-19 19:30N 25°46' W 080°05'1 2.1
2017-Oct-19 19:00N 25°47' W 080°05'0 0.0
2017-Oct-19 18:28N 25°47' W 080°05'0 0.0
2017-Oct-19 17:58N 25°47' W 080°05'0 0.0
2017-Oct-19 17:30N 25°47' W 080°05'0 0.0
2017-Oct-19 16:58N 25°47' W 080°05'0 0.0
2017-Oct-19 16:30N 25°47' W 080°05'0 0.0
2017-Oct-19 16:00N 25°47' W 080°05'0 0.0
2017-Oct-19 15:29N 25°47' W 080°05'0 0.0
2017-Oct-19 14:59N 25°47' W 080°05'0 0.0
2017-Oct-19 14:29N 25°47' W 080°05'2 3.3
2017-Oct-19 14:00N 25°46' W 080°04'5 9.2
2017-Oct-19 13:30N 25°47' W 079°59'5 9.2
2017-Oct-19 13:00N 25°48' W 079°54'4 8.9
2017-Oct-19 12:31N 25°48' W 079°49'5 8.9
2017-Oct-19 12:00N 25°49' W 079°44'4 9.1
2017-Oct-19 11:31N 25°50' W 079°39'3 0.1
2017-Oct-17 23:17N 25°50' W 079°36'3 9.8
2017-Oct-17 23:00N 25°49' W 079°39'5 9.8
2017-Oct-17 22:30N 25°49' W 079°45'5 9.8
2017-Oct-17 22:00N 25°48' W 079°50'5 9.8
2017-Oct-17 21:30N 25°48' W 079°56'5 9.9
2017-Oct-17 21:00N 25°47' W 080°01'4 9.0
2017-Oct-17 20:30N 25°46' W 080°06'4 7.6
2017-Oct-17 20:01N 25°46' W 080°10'2 3.4
2017-Oct-17 19:30N 25°46' W 080°12'2 3.5
2017-Oct-17 19:01N 25°47' W 080°14'1 2.9
2017-Oct-17 18:30N 25°48' W 080°15'0 0.7
2017-Oct-17 17:59N 25°48' W 080°15'0 0.0
2017-Oct-17 17:29N 25°48' W 080°15'0 0.0
2017-Oct-17 16:59N 25°48' W 080°15'0 0.0
2017-Oct-17 16:29N 25°48' W 080°15'0 0.0
2017-Oct-17 15:59N 25°48' W 080°15'0 0.0
2017-Oct-17 15:29N 25°48' W 080°15'0 0.0
2017-Oct-17 14:59N 25°48' W 080°15'0 0.0
2017-Oct-17 14:26N 25°48' W 080°15'0 0.0
2017-Oct-17 13:59N 25°48' W 080°15'0 0.0
2017-Oct-17 13:29N 25°48' W 080°15'0 0.0
2017-Oct-17 12:59N 25°48' W 080°15'0 0.0
2017-Oct-17 12:29N 25°48' W 080°15'0 0.0
2017-Oct-17 11:59N 25°48' W 080°15'0 0.0
2017-Oct-17 11:29N 25°48' W 080°15'0 0.0
2017-Oct-17 10:59N 25°48' W 080°15'0 0.0
2017-Oct-17 10:29N 25°48' W 080°15'0 0.0
2017-Oct-17 09:59N 25°48' W 080°15'0 0.0
2017-Oct-17 09:28N 25°48' W 080°15'0 0.0
2017-Oct-17 08:58N 25°48' W 080°15'0 0.0
2017-Oct-17 08:25N 25°48' W 080°15'0 0.0
2017-Oct-17 07:58N 25°48' W 080°15'0 0.0
2017-Oct-17 07:25N 25°48' W 080°15'0 0.0
2017-Oct-17 06:58N 25°48' W 080°15'0 0.0
2017-Oct-17 06:28N 25°48' W 080°15'0 0.0
2017-Oct-17 05:58N 25°48' W 080°15'0 0.0
2017-Oct-17 05:28N 25°48' W 080°15'0 0.0
2017-Oct-17 04:58N 25°48' W 080°15'0 0.0
2017-Oct-17 04:22N 25°48' W 080°15'0 0.0
2017-Oct-17 03:58N 25°48' W 080°15'0 0.0
2017-Oct-17 03:25N 25°48' W 080°15'0 0.0
2017-Oct-17 02:58N 25°48' W 080°15'0 0.0
2017-Oct-17 02:28N 25°48' W 080°15'0 0.0
2017-Oct-17 01:55N 25°48' W 080°15'0 0.0
2017-Oct-17 01:28N 25°48' W 080°15'0 0.0
2017-Oct-17 00:58N 25°48' W 080°15'0 0.0
2017-Oct-17 00:28N 25°48' W 080°15'0 0.0
2017-Oct-16 23:58N 25°48' W 080°15'0 0.0
2017-Oct-16 23:28N 25°48' W 080°15'0 0.0
2017-Oct-16 22:58N 25°48' W 080°15'0 0.0
2017-Oct-16 22:28N 25°48' W 080°15'0 0.0
2017-Oct-16 21:58N 25°48' W 080°15'0 0.0
2017-Oct-16 21:28N 25°48' W 080°15'0 0.0
2017-Oct-16 20:58N 25°48' W 080°15'0 0.0
2017-Oct-16 20:28N 25°48' W 080°15'0 0.0
2017-Oct-16 19:58N 25°48' W 080°15'0 0.0
2017-Oct-16 19:28N 25°48' W 080°15'0 0.0
2017-Oct-16 18:58N 25°48' W 080°15'0 0.0
2017-Oct-16 18:28N 25°48' W 080°15'0 0.0
2017-Oct-16 17:58N 25°48' W 080°15'0 0.0
2017-Oct-16 17:29N 25°48' W 080°15'0 0.0
2017-Oct-16 16:58N 25°48' W 080°15'0 0.0
2017-Oct-16 16:28N 25°48' W 080°15'0 0.0
2017-Oct-16 15:58N 25°48' W 080°15'0 0.0
2017-Oct-16 15:25N 25°48' W 080°15'0 0.0
2017-Oct-16 14:58N 25°48' W 080°15'0 0.0
2017-Oct-16 14:00N 25°48' W 080°15'0 0.0
2017-Oct-16 13:30N 25°48' W 080°15'0 0.0
2017-Oct-16 12:56N 25°48' W 080°15'0 0.0
2017-Oct-16 12:29N 25°48' W 080°15'0 0.0
2017-Oct-16 11:59N 25°48' W 080°15'0 0.0
2017-Oct-16 11:29N 25°48' W 080°15'0 0.0
2017-Oct-16 10:59N 25°48' W 080°15'0 0.0
2017-Oct-16 10:29N 25°48' W 080°15'0 0.0
2017-Oct-16 09:59N 25°48' W 080°15'0 0.0
2017-Oct-16 09:29N 25°48' W 080°15'0 0.0
2017-Oct-16 08:59N 25°48' W 080°15'0 0.0
2017-Oct-16 08:30N 25°48' W 080°15'0 0.0
2017-Oct-16 08:00N 25°48' W 080°15'0 0.0
2017-Oct-16 07:27N 25°48' W 080°15'0 0.0
2017-Oct-16 07:00N 25°48' W 080°15'0 0.0
2017-Oct-16 06:30N 25°48' W 080°15'0 0.0
2017-Oct-16 05:57N 25°48' W 080°15'0 0.0
2017-Oct-16 05:30N 25°48' W 080°15'0 0.0
2017-Oct-16 05:00N 25°48' W 080°15'0 0.0
2017-Oct-16 04:30N 25°48' W 080°15'0 0.0
2017-Oct-16 04:00N 25°48' W 080°15'0 0.0
2017-Oct-16 03:30N 25°48' W 080°15'0 0.0
2017-Oct-16 03:00N 25°48' W 080°15'0 0.0
2017-Oct-16 02:30N 25°48' W 080°15'0 0.0
2017-Oct-16 02:00N 25°48' W 080°15'0 0.0
2017-Oct-16 01:27N 25°48' W 080°15'0 0.0
2017-Oct-16 01:00N 25°48' W 080°15'0 0.0
2017-Oct-16 00:30N 25°48' W 080°15'0 0.0
2017-Oct-16 00:00N 25°48' W 080°15'0 0.0
2017-Oct-15 23:21N 25°48' W 080°15'0 0.0
2017-Oct-15 23:00N 25°48' W 080°15'0 0.0
2017-Oct-15 22:30N 25°48' W 080°15'0 0.0
2017-Oct-15 22:00N 25°48' W 080°15'0 0.0
2017-Oct-15 21:30N 25°48' W 080°15'0 0.0
2017-Oct-15 21:00N 25°48' W 080°15'0 0.0
2017-Oct-15 20:30N 25°48' W 080°15'0 0.0
2017-Oct-15 20:00N 25°48' W 080°15'0 0.0
2017-Oct-15 19:30N 25°48' W 080°15'0 0.0
2017-Oct-15 19:00N 25°48' W 080°15'0 0.0
2017-Oct-15 18:30N 25°48' W 080°15'0 0.0
2017-Oct-15 17:59N 25°48' W 080°15'0 0.0
2017-Oct-15 17:30N 25°48' W 080°15'0 0.0
2017-Oct-15 16:59N 25°48' W 080°15'0 0.0
2017-Oct-15 16:29N 25°48' W 080°15'0 0.0
2017-Oct-15 15:47N 25°48' W 080°15'0 0.0
2017-Oct-15 15:29N 25°48' W 080°15'0 0.0
2017-Oct-15 14:59N 25°48' W 080°15'0 0.0
2017-Oct-15 13:59N 25°48' W 080°15'0 0.0
2017-Oct-15 13:23N 25°48' W 080°15'0 0.0
2017-Oct-15 12:59N 25°48' W 080°15'0 0.0
2017-Oct-15 12:23N 25°48' W 080°15'0 0.0
2017-Oct-15 11:59N 25°48' W 080°15'0 0.0
2017-Oct-15 11:29N 25°48' W 080°15'0 0.0
2017-Oct-15 10:56N 25°48' W 080°15'0 0.0
2017-Oct-15 10:29N 25°48' W 080°15'0 0.0
2017-Oct-15 09:56N 25°48' W 080°15'0 0.0
2017-Oct-15 09:26N 25°48' W 080°15'0 0.0
2017-Oct-15 08:56N 25°48' W 080°15'0 0.0
2017-Oct-15 08:26N 25°48' W 080°15'0 0.0
2017-Oct-15 07:56N 25°48' W 080°15'0 0.0
2017-Oct-15 07:26N 25°48' W 080°15'0 0.0
2017-Oct-15 06:56N 25°48' W 080°15'0 0.0
2017-Oct-15 06:29N 25°48' W 080°15'0 0.0
2017-Oct-15 05:56N 25°48' W 080°15'0 0.0
2017-Oct-15 05:29N 25°48' W 080°15'0 0.0
2017-Oct-15 04:59N 25°48' W 080°15'0 0.0
2017-Oct-15 04:29N 25°48' W 080°15'0 0.0
2017-Oct-15 03:59N 25°48' W 080°15'0 0.0
2017-Oct-15 03:26N 25°48' W 080°15'0 0.0
2017-Oct-15 02:59N 25°48' W 080°15'0 0.0
2017-Oct-15 02:29N 25°48' W 080°15'0 0.0
2017-Oct-15 01:59N 25°48' W 080°15'0 0.0
2017-Oct-15 01:29N 25°48' W 080°15'0 0.0
2017-Oct-15 00:59N 25°48' W 080°15'0 0.0
2017-Oct-15 00:29N 25°48' W 080°15'0 0.0
2017-Oct-14 23:59N 25°48' W 080°15'0 0.0
2017-Oct-14 23:29N 25°48' W 080°15'0 0.0
2017-Oct-14 22:59N 25°48' W 080°15'0 0.0
2017-Oct-14 22:29N 25°48' W 080°15'0 0.0
2017-Oct-14 21:59N 25°48' W 080°15'0 0.0
2017-Oct-14 21:23N 25°48' W 080°15'0 0.3
2017-Oct-14 21:01N 25°48' W 080°15'1 2.7
2017-Oct-14 20:31N 25°47' W 080°14'2 3.3
2017-Oct-14 20:01N 25°47' W 080°12'2 3.2
2017-Oct-14 19:31N 25°46' W 080°11'3 7.0
2017-Oct-14 19:01N 25°45' W 080°07'2 4.9
2017-Oct-14 18:30N 25°46' W 080°04'2 5.0
2017-Oct-14 18:00N 25°47' W 080°02'2 4.7
2017-Oct-14 17:30N 25°47' W 079°59'2 4.3
2017-Oct-14 17:00N 25°47' W 079°57'3 6.2
2017-Oct-14 16:30N 25°48' W 079°53'3 6.4
2017-Oct-14 16:00N 25°48' W 079°50'3 6.4
2017-Oct-14 15:30N 25°49' W 079°46'3 6.3
2017-Oct-14 15:00N 25°49' W 079°43'7 0.2
2017-Oct-13 00:11N 25°54' W 079°37'3 8.1
2017-Oct-12 23:50N 25°56' W 079°39'3 7.9
2017-Oct-12 23:30N 25°57' W 079°41'3 6.6
2017-Oct-12 23:00N 25°59' W 079°44'5 9.6
2017-Oct-12 22:30N 25°56' W 079°48'5 9.9
2017-Oct-12 22:00N 25°53' W 079°52'5 9.7
2017-Oct-12 21:30N 25°50' W 079°57'510.0
2017-Oct-12 21:00N 25°47' W 080°01'4 8.8
2017-Oct-12 20:31N 25°46' W 080°06'4 7.7
2017-Oct-12 20:00N 25°46' W 080°10'2 3.3
2017-Oct-12 19:30N 25°46' W 080°12'1 2.8
2017-Oct-12 19:00N 25°47' W 080°13'1 3.0
2017-Oct-12 18:30N 25°48' W 080°15'1 1.6
2017-Oct-12 18:00N 25°48' W 080°15'0 0.0
2017-Oct-12 17:30N 25°48' W 080°15'0 0.0
2017-Oct-12 17:00N 25°48' W 080°15'0 0.0
2017-Oct-12 16:26N 25°48' W 080°15'0 0.0
2017-Oct-12 15:56N 25°48' W 080°15'0 0.0
2017-Oct-12 15:29N 25°48' W 080°15'0 0.0
2017-Oct-12 14:59N 25°48' W 080°15'0 0.0
2017-Oct-12 14:29N 25°48' W 080°15'0 0.0
2017-Oct-12 13:59N 25°48' W 080°15'0 0.0
2017-Oct-12 13:29N 25°48' W 080°15'0 0.0
2017-Oct-12 12:59N 25°48' W 080°15'0 0.0
2017-Oct-12 12:29N 25°48' W 080°15'0 0.0
2017-Oct-12 11:59N 25°48' W 080°15'0 0.0
2017-Oct-12 11:30N 25°48' W 080°15'0 0.0
2017-Oct-12 10:57N 25°48' W 080°15'0 0.0
2017-Oct-12 10:30N 25°48' W 080°15'0 0.0
2017-Oct-12 09:57N 25°48' W 080°15'0 0.0
2017-Oct-12 09:30N 25°48' W 080°15'0 0.0
2017-Oct-12 09:00N 25°48' W 080°15'0 0.0
2017-Oct-12 08:30N 25°48' W 080°15'0 0.0
2017-Oct-12 08:00N 25°48' W 080°15'0 0.0
2017-Oct-12 07:30N 25°48' W 080°15'0 0.0
2017-Oct-12 07:00N 25°48' W 080°15'0 0.0
2017-Oct-12 06:30N 25°48' W 080°15'0 0.0
2017-Oct-12 06:00N 25°48' W 080°15'0 0.0
2017-Oct-12 05:30N 25°48' W 080°15'0 0.0
2017-Oct-12 05:00N 25°48' W 080°15'0 0.0
2017-Oct-12 04:30N 25°48' W 080°15'0 0.0
2017-Oct-12 04:00N 25°48' W 080°15'0 0.0
2017-Oct-12 03:30N 25°48' W 080°15'0 0.0
2017-Oct-12 03:00N 25°48' W 080°15'0 0.0
2017-Oct-12 02:30N 25°48' W 080°15'0 0.0
2017-Oct-12 02:00N 25°48' W 080°15'0 0.0
2017-Oct-12 01:30N 25°48' W 080°15'0 0.0
2017-Oct-12 01:00N 25°48' W 080°15'0 0.0
2017-Oct-12 00:27N 25°48' W 080°15'0 0.0
2017-Oct-12 00:00N 25°48' W 080°15'0 0.0
2017-Oct-11 23:27N 25°48' W 080°15'0 0.0
2017-Oct-11 23:00N 25°48' W 080°15'0 0.0
2017-Oct-11 22:30N 25°48' W 080°15'0 0.0
2017-Oct-11 22:00N 25°48' W 080°15'0 0.0
2017-Oct-11 21:27N 25°48' W 080°15'0 0.0
2017-Oct-11 21:00N 25°48' W 080°15'0 0.0
2017-Oct-11 20:30N 25°48' W 080°15'0 0.0
2017-Oct-11 20:00N 25°48' W 080°15'0 0.0
2017-Oct-11 19:30N 25°48' W 080°15'0 0.0
2017-Oct-11 19:00N 25°48' W 080°15'0 0.0
2017-Oct-11 18:30N 25°48' W 080°15'0 0.0
2017-Oct-11 18:00N 25°48' W 080°15'0 0.0
2017-Oct-11 17:30N 25°48' W 080°15'0 0.0
2017-Oct-11 17:00N 25°48' W 080°15'0 0.0
2017-Oct-11 00:00N 25°48' W 080°15'0 0.0
2017-Oct-10 23:30N 25°48' W 080°15'0 0.0
2017-Oct-10 23:00N 25°48' W 080°15'0 0.0
2017-Oct-10 22:30N 25°48' W 080°15'0 0.0
2017-Oct-10 22:00N 25°48' W 080°15'0 0.0
2017-Oct-10 21:30N 25°48' W 080°15'0 0.0
2017-Oct-10 21:00N 25°48' W 080°15'0 0.0
2017-Oct-10 20:30N 25°48' W 080°15'0 0.0
2017-Oct-10 20:00N 25°48' W 080°15'0 0.0
2017-Oct-10 19:30N 25°48' W 080°15'0 0.0
2017-Oct-10 19:00N 25°48' W 080°15'0 0.0
2017-Oct-10 18:30N 25°48' W 080°15'0 0.0
2017-Oct-10 18:00N 25°48' W 080°15'0 0.0
2017-Oct-10 17:30N 25°48' W 080°15'0 0.0
2017-Oct-10 17:01N 25°48' W 080°15'0 0.0
2017-Oct-10 16:30N 25°48' W 080°15'0 0.0
2017-Oct-10 16:00N 25°48' W 080°15'0 0.0
2017-Oct-10 15:30N 25°48' W 080°15'0 0.0
2017-Oct-10 15:00N 25°48' W 080°15'0 0.0
2017-Oct-10 14:00N 25°48' W 080°15'0 0.0
2017-Oct-10 13:30N 25°48' W 080°15'0 0.0
2017-Oct-10 13:00N 25°48' W 080°15'0 0.0
2017-Oct-10 12:30N 25°48' W 080°15'0 0.0
2017-Oct-10 12:00N 25°48' W 080°15'0 0.0
2017-Oct-10 11:30N 25°48' W 080°15'0 0.0
2017-Oct-10 11:00N 25°48' W 080°15'0 0.0
2017-Oct-10 10:30N 25°48' W 080°15'0 0.0
2017-Oct-10 10:00N 25°48' W 080°15'0 0.0
2017-Oct-10 09:30N 25°48' W 080°15'0 0.0
2017-Oct-10 09:00N 25°48' W 080°15'0 0.0
2017-Oct-10 08:30N 25°48' W 080°15'0 0.0
2017-Oct-10 08:00N 25°48' W 080°15'0 0.0
2017-Oct-10 07:30N 25°48' W 080°15'0 0.0
2017-Oct-10 07:00N 25°48' W 080°15'0 0.0
2017-Oct-10 06:30N 25°48' W 080°15'0 0.0
2017-Oct-10 06:00N 25°48' W 080°15'0 0.0
2017-Oct-10 05:30N 25°48' W 080°15'0 0.0
2017-Oct-10 05:00N 25°48' W 080°15'0 0.0
2017-Oct-10 04:29N 25°48' W 080°15'0 0.0
2017-Oct-10 04:00N 25°48' W 080°15'0 0.0
2017-Oct-10 03:30N 25°48' W 080°15'0 0.0
2017-Oct-10 03:00N 25°48' W 080°15'0 0.0
2017-Oct-10 02:30N 25°48' W 080°15'0 0.0
2017-Oct-10 02:00N 25°48' W 080°15'0 0.0
2017-Oct-10 01:30N 25°48' W 080°15'  

Dump ship's entire track history